Time;durP1;ratioP1;P1;durP2;ratioP2;P2;SDS_P1;SDS_P2;PMS_P1;PMS_P2;Temp;Humidity;BMP_temperature;BMP_pressure;BME280_temperature;BME280_humidity;BME280_pressure;Samples;Min_cycle;Max_cycle;Signal;HPM_P1;HPM_P2
2021/07/09 00:01:11;;;;;;;3.50;3.20;;;15.50;99.90;;;;;;5117737;28;20539;-70
2021/07/09 00:03:36;;;;;;;5.47;3.33;;;15.40;99.90;;;;;;5117690;28;20501;-70
2021/07/09 00:06:03;;;;;;;3.27;2.97;;;15.30;99.90;;;;;;5117299;28;20418;-68
2021/07/09 00:08:29;;;;;;;2.77;2.57;;;15.10;99.90;;;;;;5117693;28;20313;-70
2021/07/09 00:10:54;;;;;;;3.17;2.93;;;14.90;99.90;;;;;;5117504;28;20432;-70
2021/07/09 00:13:20;;;;;;;3.00;2.80;;;14.90;99.90;;;;;;5117376;28;20208;-69
2021/07/09 00:15:46;;;;;;;2.97;2.70;;;14.90;99.90;;;;;;5117074;28;20191;-70
2021/07/09 00:18:12;;;;;;;3.43;3.13;;;14.90;99.90;;;;;;5115958;28;20413;-68
2021/07/09 00:20:38;;;;;;;4.90;4.50;;;15.00;99.90;;;;;;5115938;28;20173;-70
2021/07/09 00:23:04;;;;;;;4.30;3.53;;;15.10;99.90;;;;;;5117230;28;20184;-68
2021/07/09 00:25:29;;;;;;;3.23;2.93;;;15.20;99.90;;;;;;5117170;28;20203;-67
2021/07/09 00:27:55;;;;;;;5.73;2.73;;;15.20;99.90;;;;;;5117058;27;20203;-68
2021/07/09 00:30:20;;;;;;;4.33;3.93;;;15.10;99.90;;;;;;5117193;28;20177;-70
2021/07/09 00:32:46;;;;;;;3.23;2.93;;;15.10;99.90;;;;;;5117134;28;20195;-67
2021/07/09 00:35:12;;;;;;;2.93;2.73;;;15.00;99.90;;;;;;5116857;28;20255;-68
2021/07/09 00:37:37;;;;;;;3.67;3.03;;;15.00;99.90;;;;;;5116827;28;20176;-71
2021/07/09 00:40:07;;;;;;;3.60;3.30;;;14.90;99.90;;;;;;5117045;28;20687;-67
2021/07/09 00:42:33;;;;;;;3.10;2.90;;;15.20;99.90;;;;;;5116911;28;20171;-68
2021/07/09 00:45:00;;;;;;;6.57;3.33;;;15.30;99.90;;;;;;5116482;28;20441;-68
2021/07/09 00:47:26;;;;;;;9.83;4.47;;;15.30;99.90;;;;;;5116632;27;20959;-70
2021/07/09 00:49:51;;;;;;;3.53;3.23;;;15.30;99.90;;;;;;5116198;28;20486;-70
2021/07/09 00:52:18;;;;;;;4.03;3.70;;;15.30;99.90;;;;;;5116550;28;20175;-70
2021/07/09 00:54:44;;;;;;;4.10;3.80;;;15.20;99.90;;;;;;5116371;28;20188;-68
2021/07/09 00:57:11;;;;;;;4.73;3.93;;;15.30;99.90;;;;;;5116369;28;20407;-71
2021/07/09 00:59:36;;;;;;;3.87;3.47;;;15.50;99.90;;;;;;5116406;28;20537;-70
2021/07/09 01:02:02;;;;;;;4.93;3.87;;;15.50;99.90;;;;;;5116606;28;20411;-69
2021/07/09 01:04:28;;;;;;;4.70;4.20;;;15.40;99.90;;;;;;5116231;28;20434;-68
2021/07/09 01:06:55;;;;;;;5.53;4.47;;;15.50;99.90;;;;;;5116480;28;20892;-70
2021/07/09 01:09:20;;;;;;;4.33;3.90;;;15.50;99.90;;;;;;5116407;28;20249;-69
2021/07/09 01:11:50;;;;;;;4.30;3.90;;;15.50;99.90;;;;;;5116380;27;20465;-69
2021/07/09 01:14:18;;;;;;;4.50;4.20;;;15.60;99.90;;;;;;5116239;28;20194;-71
2021/07/09 01:16:45;;;;;;;5.17;4.67;;;15.60;99.90;;;;;;5115873;28;20453;-70
2021/07/09 01:19:14;;;;;;;5.57;5.07;;;15.70;99.90;;;;;;5116471;27;20394;-71
2021/07/09 01:21:41;;;;;;;4.00;3.70;;;15.80;99.90;;;;;;5115982;28;20395;-68
2021/07/09 01:24:08;;;;;;;4.33;3.93;;;15.80;99.90;;;;;;5116072;28;20790;-70
2021/07/09 01:26:35;;;;;;;4.00;3.70;;;15.80;99.90;;;;;;5115735;28;20526;-68
2021/07/09 01:29:01;;;;;;;5.17;4.77;;;15.80;99.90;;;;;;5116302;28;20417;-68
2021/07/09 01:31:27;;;;;;;5.00;4.60;;;15.90;99.90;;;;;;5115873;28;20410;-69
2021/07/09 01:33:53;;;;;;;4.87;4.47;;;15.90;99.90;;;;;;5115729;28;20436;-69
2021/07/09 01:36:19;;;;;;;4.70;4.20;;;15.90;99.90;;;;;;5115648;28;20453;-70
2021/07/09 01:38:44;;;;;;;3.97;3.50;;;15.90;99.90;;;;;;5115909;28;20172;-67
2021/07/09 01:41:10;;;;;;;4.67;4.27;;;15.80;99.90;;;;;;5115825;28;20164;-69
2021/07/09 01:43:36;;;;;;;4.87;4.43;;;15.80;99.90;;;;;;5115577;28;20218;-69
2021/07/09 01:46:01;;;;;;;5.33;4.30;;;15.70;99.90;;;;;;5115266;28;20245;-70
2021/07/09 01:48:27;;;;;;;3.77;3.37;;;15.50;99.90;;;;;;5115630;28;20183;-69
2021/07/09 01:50:53;;;;;;;4.10;3.80;;;15.50;99.90;;;;;;5115596;28;20200;-70
2021/07/09 01:53:19;;;;;;;3.10;2.90;;;15.60;99.90;;;;;;5115430;28;20962;-69
2021/07/09 01:55:45;;;;;;;4.10;3.80;;;15.70;99.90;;;;;;5115078;27;20447;-67
2021/07/09 01:58:11;;;;;;;3.63;3.43;;;15.80;99.90;;;;;;5115821;28;20178;-70
2021/07/09 02:00:37;;;;;;;3.60;3.30;;;15.80;99.90;;;;;;5114952;28;20404;-69
2021/07/09 02:03:03;;;;;;;4.10;3.77;;;15.70;99.90;;;;;;5114660;28;20211;-70
2021/07/09 02:05:29;;;;;;;4.60;4.20;;;15.70;99.90;;;;;;5115229;28;20493;-70
2021/07/09 02:07:56;;;;;;;4.40;4.00;;;15.70;99.90;;;;;;5114932;28;20179;-68
2021/07/09 02:10:25;;;;;;;4.17;3.87;;;15.70;99.90;;;;;;5115219;28;20485;-70
2021/07/09 02:12:54;;;;;;;4.83;4.40;;;15.60;99.90;;;;;;5114983;28;20403;-71
2021/07/09 02:15:25;;;;;;;4.70;4.00;;;15.50;99.90;;;;;;5115057;28;20448;-69
2021/07/09 02:17:51;;;;;;;3.43;3.13;;;15.60;99.90;;;;;;5114798;28;20418;-71
2021/07/09 02:20:20;;;;;;;4.33;4.03;;;15.50;99.90;;;;;;5115268;28;20935;-70
2021/07/09 02:22:46;;;;;;;3.67;3.37;;;15.60;99.90;;;;;;5114911;28;20874;-69
2021/07/09 02:25:13;;;;;;;4.10;3.40;;;15.60;99.90;;;;;;5114750;27;20397;-70
2021/07/09 02:27:41;;;;;;;4.20;3.60;;;15.60;99.90;;;;;;5114678;28;20583;-68
2021/07/09 02:30:10;;;;;;;4.43;4.13;;;15.70;99.90;;;;;;5113486;28;20984;-67
2021/07/09 02:32:37;;;;;;;4.00;3.70;;;15.70;99.90;;;;;;5114765;28;20404;-68
2021/07/09 02:35:08;;;;;;;4.13;3.73;;;15.80;99.90;;;;;;5114560;28;20455;-68
2021/07/09 02:37:34;;;;;;;5.60;3.40;;;15.80;99.90;;;;;;5113157;28;20463;-67
2021/07/09 02:40:00;;;;;;;4.83;4.00;;;15.80;99.90;;;;;;5114698;28;20945;-71
2021/07/09 02:42:26;;;;;;;3.70;3.40;;;15.70;99.90;;;;;;5114655;28;20172;-69
2021/07/09 02:44:51;;;;;;;5.20;3.20;;;15.50;99.90;;;;;;5114344;28;20200;-69
2021/07/09 02:47:17;;;;;;;3.13;2.83;;;15.50;99.90;;;;;;5114368;28;20170;-68
2021/07/09 02:49:43;;;;;;;3.47;3.17;;;15.60;99.90;;;;;;5114516;28;20176;-69
2021/07/09 02:52:09;;;;;;;3.90;3.60;;;15.70;99.90;;;;;;5114444;28;20275;-68
2021/07/09 02:54:35;;;;;;;4.30;4.00;;;15.50;99.90;;;;;;5114124;27;20555;-70
2021/07/09 02:57:01;;;;;;;4.67;4.37;;;15.50;99.90;;;;;;5114172;28;20412;-67
2021/07/09 02:59:26;;;;;;;4.20;3.90;;;15.40;99.90;;;;;;5114114;28;20180;-69
2021/07/09 03:01:52;;;;;;;4.60;3.13;;;15.40;99.90;;;;;;5114269;27;20171;-67
2021/07/09 03:04:17;;;;;;;4.00;3.67;;;15.30;99.90;;;;;;5114019;28;20218;-69
2021/07/09 03:06:43;;;;;;;4.53;4.10;;;15.30;99.90;;;;;;5114296;28;20654;-70
2021/07/09 03:09:10;;;;;;;4.37;4.07;;;15.30;99.90;;;;;;5114030;28;20177;-68
2021/07/09 03:11:37;;;;;;;3.70;3.50;;;15.40;99.90;;;;;;5114034;28;20406;-71
2021/07/09 03:14:04;;;;;;;4.70;4.20;;;15.50;99.90;;;;;;5113704;28;20453;-71
2021/07/09 03:16:30;;;;;;;5.17;3.80;;;15.50;99.90;;;;;;5113733;28;20795;-68
2021/07/09 03:18:56;;;;;;;3.97;3.67;;;15.60;99.90;;;;;;5114049;28;20461;-68
2021/07/09 03:21:21;;;;;;;5.07;4.67;;;15.60;99.90;;;;;;5114025;28;20194;-71
2021/07/09 03:23:47;;;;;;;6.97;3.90;;;15.70;99.90;;;;;;5113765;28;20214;-70
2021/07/09 03:26:13;;;;;;;3.80;3.50;;;15.60;99.90;;;;;;5113953;28;20188;-68
2021/07/09 03:28:38;;;;;;;4.57;4.17;;;15.70;99.90;;;;;;5113857;28;20532;-70
2021/07/09 03:31:05;;;;;;;5.80;5.00;;;15.80;99.90;;;;;;5113876;28;20179;-68
2021/07/09 03:33:30;;;;;;;4.37;3.40;;;15.80;99.90;;;;;;5113773;28;20233;-68
2021/07/09 03:35:56;;;;;;;4.97;4.60;;;15.70;99.90;;;;;;5113559;28;20481;-70
2021/07/09 03:38:22;;;;;;;4.87;4.47;;;15.70;99.90;;;;;;5114102;28;20213;-70
2021/07/09 03:40:48;;;;;;;3.57;3.17;;;15.70;99.90;;;;;;5113732;28;20176;-67
2021/07/09 03:43:14;;;;;;;4.20;3.83;;;15.60;99.90;;;;;;5113511;28;20787;-69
2021/07/09 03:45:40;;;;;;;6.17;4.43;;;15.50;99.90;;;;;;5113456;28;20429;-70
2021/07/09 03:48:06;;;;;;;4.40;4.03;;;15.60;99.90;;;;;;5113759;28;20399;-68
2021/07/09 03:50:32;;;;;;;4.47;3.87;;;15.40;99.90;;;;;;5112175;28;20655;-68
2021/07/09 03:52:58;;;;;;;4.37;4.07;;;15.30;99.90;;;;;;5113505;28;20433;-69
2021/07/09 03:55:24;;;;;;;4.40;4.10;;;15.30;99.90;;;;;;5112194;28;20982;-69
2021/07/09 03:57:50;;;;;;;3.87;3.57;;;15.40;99.90;;;;;;5113471;28;20195;-68
2021/07/09 04:00:16;;;;;;;9.93;3.77;;;15.50;99.90;;;;;;5113646;28;20164;-70
2021/07/09 04:02:42;;;;;;;5.27;4.87;;;15.60;99.90;;;;;;5113499;28;20692;-69
2021/07/09 04:05:09;;;;;;;4.07;3.70;;;15.60;99.90;;;;;;5113412;28;21302;-70
2021/07/09 04:07:35;;;;;;;4.73;4.23;;;15.60;99.90;;;;;;5113271;28;20433;-68
2021/07/09 04:10:01;;;;;;;4.03;3.67;;;15.60;99.90;;;;;;5113611;28;20437;-68
2021/07/09 04:12:27;;;;;;;5.30;4.50;;;15.70;99.90;;;;;;5113724;28;20177;-67
2021/07/09 04:14:52;;;;;;;3.50;3.20;;;15.70;99.90;;;;;;5113204;28;20480;-69
2021/07/09 04:17:18;;;;;;;4.77;4.37;;;15.50;99.90;;;;;;5113126;28;20169;-69
2021/07/09 04:19:43;;;;;;;3.67;3.37;;;15.60;99.90;;;;;;5113469;28;20589;-68
2021/07/09 04:22:09;;;;;;;4.17;3.83;;;15.60;99.90;;;;;;5113431;28;20168;-67
2021/07/09 04:24:35;;;;;;;4.30;4.00;;;15.60;99.90;;;;;;5114198;28;20176;-69
2021/07/09 04:27:00;;;;;;;4.57;4.17;;;15.70;99.90;;;;;;5117313;28;20540;-67
2021/07/09 04:29:26;;;;;;;4.53;4.23;;;15.70;99.90;;;;;;5117004;28;20655;-70
2021/07/09 04:31:51;;;;;;;3.90;3.70;;;15.70;99.90;;;;;;5117204;28;20169;-68
2021/07/09 04:34:17;;;;;;;6.40;3.40;;;15.70;99.90;;;;;;5116931;28;20191;-67
2021/07/09 04:36:43;;;;;;;5.70;4.73;;;15.70;99.90;;;;;;5116691;28;20202;-70
2021/07/09 04:39:09;;;;;;;4.90;4.50;;;15.80;99.90;;;;;;5116971;28;20173;-70
2021/07/09 04:41:35;;;;;;;4.30;4.00;;;15.90;99.90;;;;;;5116962;27;20159;-68
2021/07/09 04:44:00;;;;;;;10.83;4.27;;;15.90;99.90;;;;;;5116705;28;20277;-68
2021/07/09 04:46:26;;;;;;;6.13;4.17;;;15.90;99.90;;;;;;5116541;28;20214;-67
2021/07/09 04:48:51;;;;;;;4.37;3.97;;;16.00;99.90;;;;;;5116835;28;20201;-69
2021/07/09 04:51:17;;;;;;;4.37;3.97;;;16.00;99.90;;;;;;5116744;28;20171;-67
2021/07/09 04:53:43;;;;;;;4.80;4.03;;;16.00;99.90;;;;;;5116547;28;20190;-71
2021/07/09 04:56:08;;;;;;;4.77;4.37;;;16.00;99.90;;;;;;5116350;28;20196;-69
2021/07/09 04:58:34;;;;;;;5.03;4.63;;;16.00;99.90;;;;;;5116659;28;20171;-67
2021/07/09 05:01:00;;;;;;;5.20;4.70;;;16.00;99.90;;;;;;5116718;27;20161;-70
2021/07/09 05:03:25;;;;;;;6.83;4.40;;;16.00;99.90;;;;;;5116545;28;20544;-70
2021/07/09 05:05:51;;;;;;;3.50;3.30;;;16.00;99.90;;;;;;5116220;28;20170;-69
2021/07/09 05:08:17;;;;;;;4.33;4.03;;;15.90;99.90;;;;;;5116375;28;20632;-68
2021/07/09 05:10:43;;;;;;;4.17;3.90;;;15.90;99.90;;;;;;5116366;28;20398;-70
2021/07/09 05:13:09;;;;;;;4.50;4.17;;;16.00;99.90;;;;;;5116353;28;20186;-70
2021/07/09 05:15:34;;;;;;;4.13;3.83;;;16.10;99.90;;;;;;5116134;28;20234;-70
2021/07/09 05:18:00;;;;;;;5.13;4.53;;;16.10;99.90;;;;;;5116150;28;20948;-69
2021/07/09 05:20:27;;;;;;;5.60;3.93;;;16.10;99.90;;;;;;5116561;28;20179;-70
2021/07/09 05:22:53;;;;;;;3.80;3.50;;;16.10;99.90;;;;;;5116063;28;20558;-67
2021/07/09 05:25:19;;;;;;;3.87;3.57;;;16.10;99.90;;;;;;5116080;28;20399;-69
2021/07/09 05:27:44;;;;;;;3.63;3.43;;;16.10;99.90;;;;;;5115960;28;20751;-69
2021/07/09 05:30:11;;;;;;;3.80;3.30;;;16.20;99.90;;;;;;5116061;28;20402;-69
2021/07/09 05:32:38;;;;;;;4.53;4.20;;;16.20;99.90;;;;;;5115953;28;20183;-68
2021/07/09 05:35:05;;;;;;;3.60;3.30;;;16.20;99.90;;;;;;5114266;28;20441;-68
2021/07/09 05:37:32;;;;;;;4.37;3.63;;;16.30;99.90;;;;;;5114343;28;20410;-67
2021/07/09 05:39:58;;;;;;;5.50;5.10;;;16.30;99.90;;;;;;5115916;28;20403;-69
2021/07/09 05:42:24;;;;;;;4.97;3.93;;;16.30;99.90;;;;;;5115871;28;20443;-69
2021/07/09 05:44:50;;;;;;;4.90;4.50;;;16.50;99.90;;;;;;5115417;28;20802;-67
2021/07/09 05:47:15;;;;;;;4.00;3.70;;;16.50;99.90;;;;;;5115612;28;20180;-70
2021/07/09 05:49:41;;;;;;;4.60;4.20;;;16.50;99.90;;;;;;5115819;28;20250;-68
2021/07/09 05:52:07;;;;;;;3.50;3.27;;;16.50;99.90;;;;;;5115710;28;20161;-70
2021/07/09 05:54:33;;;;;;;3.83;3.47;;;16.40;99.90;;;;;;5115374;28;20188;-68
2021/07/09 05:56:59;;;;;;;3.83;3.40;;;16.30;99.90;;;;;;5115228;28;20461;-68
2021/07/09 05:59:25;;;;;;;3.87;3.57;;;16.40;99.90;;;;;;5115542;28;20485;-68
2021/07/09 06:01:51;;;;;;;3.60;3.30;;;16.60;99.90;;;;;;5115698;28;20401;-66
2021/07/09 06:04:17;;;;;;;5.47;3.27;;;16.70;99.90;;;;;;5113912;28;20194;-69
2021/07/09 06:06:43;;;;;;;4.87;3.57;;;16.80;99.90;;;;;;5115090;28;20173;-69
2021/07/09 06:09:09;;;;;;;4.27;3.97;;;16.90;99.90;;;;;;5115245;28;20409;-68
2021/07/09 06:11:35;;;;;;;4.23;3.90;;;16.90;99.90;;;;;;5115287;28;20459;-67
2021/07/09 06:14:02;;;;;;;4.10;3.80;;;17.00;99.90;;;;;;5115047;28;20449;-67
2021/07/09 06:16:28;;;;;;;4.63;2.90;;;17.00;99.90;;;;;;5114751;28;20452;-67
2021/07/09 06:18:53;;;;;;;3.60;3.30;;;16.90;99.90;;;;;;5114971;28;20398;-70
2021/07/09 06:21:19;;;;;;;3.17;2.93;;;16.90;99.90;;;;;;5115175;28;20164;-70
2021/07/09 06:23:45;;;;;;;4.90;3.57;;;16.80;99.90;;;;;;5115023;28;20184;-70
2021/07/09 06:26:10;;;;;;;5.10;3.80;;;16.80;99.90;;;;;;5114768;28;20233;-70
2021/07/09 06:28:36;;;;;;;3.77;3.47;;;16.80;99.90;;;;;;5114869;28;20173;-68
2021/07/09 06:31:03;;;;;;;4.10;3.70;;;16.90;99.90;;;;;;5114658;28;20175;-69
2021/07/09 06:33:29;;;;;;;3.57;3.30;;;17.00;99.90;;;;;;5114570;28;20425;-68
2021/07/09 06:35:54;;;;;;;3.23;3.03;;;17.00;99.90;;;;;;5114538;28;20781;-70
2021/07/09 06:38:21;;;;;;;2.90;2.60;;;17.20;99.90;;;;;;5114714;28;20405;-69
2021/07/09 06:40:46;;;;;;;3.93;3.53;;;17.30;99.90;;;;;;5114572;28;20309;-68
2021/07/09 06:43:12;;;;;;;3.73;3.47;;;17.40;99.90;;;;;;5114479;28;20530;-69
2021/07/09 06:45:39;;;;;;;3.40;3.03;;;17.40;99.90;;;;;;5114236;28;20237;-68
2021/07/09 06:48:06;;;;;;;3.30;3.10;;;17.50;99.90;;;;;;5113836;28;20401;-70
2021/07/09 06:50:32;;;;;;;3.20;3.00;;;17.60;99.90;;;;;;5114667;28;20413;-68
2021/07/09 06:52:58;;;;;;;4.50;3.43;;;17.50;99.90;;;;;;5114220;28;20768;-71
2021/07/09 06:55:24;;;;;;;3.90;3.60;;;17.50;99.90;;;;;;5114182;28;20438;-71
2021/07/09 06:57:49;;;;;;;3.87;3.30;;;17.60;99.90;;;;;;5114081;28;20161;-71
2021/07/09 07:00:17;;;;;;;3.90;3.50;;;17.60;99.90;;;;;;5114098;28;20394;-71
2021/07/09 07:02:44;;;;;;;3.20;2.90;;;17.70;99.90;;;;;;5114126;28;20160;-69
2021/07/09 07:05:10;;;;;;;6.00;2.97;;;17.80;99.40;;;;;;5114151;28;20763;-71
2021/07/09 07:07:36;;;;;;;3.17;2.83;;;18.00;99.90;;;;;;5114012;28;20398;-68
2021/07/09 07:10:03;;;;;;;4.47;3.57;;;18.30;99.70;;;;;;5114268;28;20395;-69
2021/07/09 07:12:29;;;;;;;2.60;2.40;;;18.30;98.40;;;;;;5114117;28;20405;-68
2021/07/09 07:14:54;;;;;;;4.07;2.50;;;18.70;98.40;;;;;;5113848;28;20947;-70
2021/07/09 07:17:20;;;;;;;2.80;2.60;;;18.70;97.90;;;;;;5113882;28;20569;-71
2021/07/09 07:19:46;;;;;;;5.87;3.10;;;18.70;98.40;;;;;;5114005;28;20173;-70
2021/07/09 07:22:12;;;;;;;3.20;3.00;;;18.70;98.60;;;;;;5113969;28;20448;-68
2021/07/09 07:24:37;;;;;;;4.40;2.80;;;18.60;99.00;;;;;;5113795;28;20555;-69
2021/07/09 07:27:04;;;;;;;3.77;3.30;;;18.10;98.70;;;;;;5113623;28;20414;-69
2021/07/09 07:29:30;;;;;;;3.50;3.13;;;18.10;99.70;;;;;;5113794;28;20651;-70
2021/07/09 07:31:55;;;;;;;4.30;3.47;;;18.20;98.70;;;;;;5113979;28;20489;-70
2021/07/09 07:34:21;;;;;;;3.13;2.90;;;18.50;98.60;;;;;;5113840;28;20192;-71
2021/07/09 07:36:47;;;;;;;3.47;2.97;;;18.50;97.60;;;;;;5113541;28;20196;-70
2021/07/09 07:39:13;;;;;;;3.30;3.00;;;18.80;98.60;;;;;;5113859;28;20329;-71
2021/07/09 07:41:38;;;;;;;3.57;3.27;;;19.20;97.60;;;;;;5113615;28;20408;-71
2021/07/09 07:44:05;;;;;;;2.13;2.00;;;19.50;96.60;;;;;;5113722;28;20187;-71
2021/07/09 07:46:31;;;;;;;4.57;3.83;;;19.70;96.90;;;;;;5113462;28;20193;-68
2021/07/09 07:48:57;;;;;;;3.03;2.80;;;20.10;97.70;;;;;;5113881;28;20405;-70
2021/07/09 07:51:24;;;;;;;3.03;2.83;;;20.30;97.60;;;;;;5113667;28;20563;-69
2021/07/09 07:53:50;;;;;;;4.33;3.97;;;20.40;97.50;;;;;;5113712;28;20428;-69
2021/07/09 07:56:17;;;;;;;3.80;3.00;;;20.40;96.70;;;;;;5113278;28;20431;-70
2021/07/09 07:58:43;;;;;;;3.00;2.80;;;20.80;95.50;;;;;;5113759;28;20422;-69
2021/07/09 08:01:09;;;;;;;12.33;3.40;;;22.10;94.90;;;;;;5117219;28;20441;-68
2021/07/09 08:03:36;;;;;;;2.33;2.13;;;23.80;91.40;;;;;;5116268;28;20694;-71
2021/07/09 08:06:03;;;;;;;1.70;1.60;;;25.60;83.70;;;;;;5117633;28;20423;-71
2021/07/09 08:08:29;;;;;;;2.87;2.17;;;27.60;77.30;;;;;;5117494;28;20492;-69
2021/07/09 08:10:55;;;;;;;2.03;1.93;;;29.20;67.60;;;;;;5117582;28;20402;-71
2021/07/09 08:13:21;;;;;;;2.63;1.93;;;29.90;60.90;;;;;;5117288;28;20421;-72
2021/07/09 08:15:47;;;;;;;2.07;1.97;;;29.80;57.00;;;;;;5117087;28;20956;-68
2021/07/09 08:18:12;;;;;;;3.53;2.30;;;28.90;57.80;;;;;;5117438;28;20623;-70
2021/07/09 08:20:40;;;;;;;1.87;1.77;;;27.80;59.80;;;;;;5117258;27;20167;-70
2021/07/09 08:23:05;;;;;;;1.60;1.50;;;27.90;60.90;;;;;;5117392;28;20176;-71
2021/07/09 08:25:31;;;;;;;1.97;1.87;;;28.60;58.10;;;;;;5117144;27;20515;-69
2021/07/09 08:27:57;;;;;;;2.43;1.63;;;28.30;57.80;;;;;;5116976;28;20631;-71
2021/07/09 08:30:22;;;;;;;2.27;1.73;;;28.00;57.90;;;;;;5117145;28;20176;-72
2021/07/09 08:32:48;;;;;;;2.57;2.33;;;27.00;60.70;;;;;;5117200;28;20191;-69
2021/07/09 08:35:14;;;;;;;3.60;2.57;;;25.30;65.20;;;;;;5116949;28;20192;-71
2021/07/09 08:37:41;;;;;;;2.27;2.17;;;23.60;71.10;;;;;;5116912;28;20218;-69
2021/07/09 08:40:08;;;;;;;3.90;2.53;;;22.20;76.20;;;;;;5116860;27;20170;-69
2021/07/09 08:42:34;;;;;;;3.17;2.93;;;21.10;81.30;;;;;;5116893;28;20420;-68
2021/07/09 08:44:59;;;;;;;3.00;2.70;;;20.20;87.00;;;;;;5116663;27;20928;-68
2021/07/09 08:47:29;;;;;;;5.37;3.23;;;19.50;90.80;;;;;;5116880;28;20209;-70
2021/07/09 08:49:55;;;;;;;2.97;2.77;;;19.30;92.50;;;;;;5117037;28;20156;-69
2021/07/09 08:52:21;;;;;;;2.53;2.33;;;20.00;94.70;;;;;;5116859;28;20755;-68
2021/07/09 08:54:46;;;;;;;3.73;3.20;;;20.80;91.50;;;;;;5117030;28;20184;-69
2021/07/09 08:57:16;;;;;;;3.97;3.50;;;21.40;90.70;;;;;;5116533;28;20198;-69
2021/07/09 08:59:41;;;;;;;3.10;2.30;;;21.90;89.60;;;;;;5116627;28;20178;-70
2021/07/09 09:02:07;;;;;;;2.60;2.40;;;21.80;88.00;;;;;;5116774;28;20400;-69
2021/07/09 09:04:38;;;;;;;3.63;2.50;;;21.40;88.90;;;;;;5116404;28;20192;-71
2021/07/09 09:07:12;;;;;;;2.60;2.40;;;20.90;90.60;;;;;;5116329;28;20173;-68
2021/07/09 09:09:39;;;;;;;4.07;3.63;;;20.20;91.60;;;;;;5116657;28;20401;-69
2021/07/09 09:12:14;;;;;;;3.00;2.80;;;19.80;93.10;;;;;;5115907;28;20435;-69
2021/07/09 09:14:51;;;;;;;2.70;2.50;;;19.60;93.10;;;;;;5116277;28;20428;-69
2021/07/09 09:17:37;;;;;;;3.40;2.63;;;19.60;94.10;;;;;;5116118;28;20430;-69
2021/07/09 09:20:17;;;;;;;2.87;2.67;;;20.40;94.00;;;;;;5116178;28;20402;-70
2021/07/09 09:22:49;;;;;;;2.40;1.97;;;21.30;93.40;;;;;;5116122;28;20739;-69
2021/07/09 09:25:15;;;;;;;2.80;2.57;;;22.30;90.00;;;;;;5116086;27;20461;-70
2021/07/09 09:27:41;;;;;;;3.37;2.67;;;22.70;86.90;;;;;;5115853;28;20942;-69
2021/07/09 09:30:12;;;;;;;3.47;3.17;;;22.30;89.70;;;;;;5115890;27;20400;-70
2021/07/09 09:32:48;;;;;;;2.70;2.50;;;22.10;86.90;;;;;;5115809;28;20172;-71
2021/07/09 09:35:37;;;;;;;3.80;2.97;;;21.80;87.40;;;;;;5115882;28;20469;-69
2021/07/09 09:38:05;;;;;;;2.80;2.60;;;21.70;90.10;;;;;;5115931;28;20372;-69
2021/07/09 09:40:33;;;;;;;3.00;2.77;;;22.30;87.50;;;;;;5115930;28;20376;-70
2021/07/09 09:43:09;;;;;;;2.60;2.40;;;22.30;86.90;;;;;;5115703;28;20425;-68
2021/07/09 09:45:35;;;;;;;3.37;2.10;;;22.10;86.60;;;;;;5115741;28;20486;-69
2021/07/09 09:48:14;;;;;;;2.33;2.13;;;22.00;90.10;;;;;;5115590;28;20390;-68
2021/07/09 09:50:50;;;;;;;3.10;2.70;;;22.00;89.50;;;;;;5115597;28;20394;-70
2021/07/09 09:53:32;;;;;;;3.37;3.07;;;21.50;88.90;;;;;;5115502;28;20468;-71
2021/07/09 09:56:05;;;;;;;2.37;2.17;;;21.20;91.50;;;;;;5115497;28;20478;-71
2021/07/09 09:58:31;;;;;;;3.17;2.90;;;21.30;91.10;;;;;;5115682;28;20402;-70
2021/07/09 10:00:57;;;;;;;2.43;2.30;;;21.30;90.20;;;;;;5115541;28;20452;-70
2021/07/09 10:03:22;;;;;;;2.20;2.10;;;21.30;90.90;;;;;;5115349;28;20188;-71
2021/07/09 10:05:50;;;;;;;4.33;3.27;;;21.10;89.50;;;;;;5115110;28;20175;-71
2021/07/09 10:08:20;;;;;;;5.07;4.63;;;20.90;92.00;;;;;;5115259;28;20176;-71
2021/07/09 10:10:47;;;;;;;2.60;2.40;;;20.80;92.40;;;;;;5115255;28;20401;-71
2021/07/09 10:13:24;;;;;;;3.87;3.57;;;20.70;92.80;;;;;;5115148;28;20487;-69
2021/07/09 10:15:52;;;;;;;4.20;2.90;;;20.80;93.70;;;;;;5114760;28;20437;-68
2021/07/09 10:18:19;;;;;;;3.03;2.73;;;21.00;92.60;;;;;;5115089;28;20850;-71
2021/07/09 10:20:46;;;;;;;3.17;2.50;;;21.60;92.00;;;;;;5115028;28;20412;-70
2021/07/09 10:23:19;;;;;;;10.43;2.30;;;22.70;92.80;;;;;;5113988;28;20471;-68
2021/07/09 10:25:47;;;;;;;2.70;2.50;;;24.60;85.30;;;;;;5114719;28;20411;-71
2021/07/09 10:28:17;;;;;;;2.20;2.00;;;26.80;78.20;;;;;;5114932;28;20795;-69
2021/07/09 10:30:43;;;;;;;2.73;2.53;;;27.50;66.80;;;;;;5114806;28;20394;-71
2021/07/09 10:33:28;;;;;;;3.63;2.30;;;26.40;65.50;;;;;;5114703;28;20505;-71
2021/07/09 10:35:55;;;;;;;2.97;2.50;;;25.20;69.30;;;;;;5114663;28;20193;-70
2021/07/09 10:38:22;;;;;;;2.57;2.37;;;24.30;76.30;;;;;;5114788;28;20400;-71
2021/07/09 10:40:49;;;;;;;2.23;2.03;;;23.70;78.30;;;;;;5114707;28;20375;-69
2021/07/09 10:43:15;;;;;;;4.30;2.40;;;23.20;73.40;;;;;;5114469;28;20504;-68
2021/07/09 10:45:42;;;;;;;2.23;1.90;;;22.70;78.20;;;;;;5114368;28;20396;-71
2021/07/09 10:48:12;;;;;;;2.77;2.57;;;22.60;81.50;;;;;;5114792;28;20390;-71
2021/07/09 10:50:52;;;;;;;2.80;2.60;;;22.60;81.40;;;;;;5114526;28;20388;-70
2021/07/09 10:53:18;;;;;;;4.20;2.30;;;22.70;84.60;;;;;;5114507;28;20832;-71
2021/07/09 10:55:50;;;;;;;1.90;1.80;;;22.70;86.60;;;;;;5114252;28;20452;-69
2021/07/09 10:58:20;;;;;;;3.20;2.57;;;22.80;81.80;;;;;;5114242;28;20397;-68
2021/07/09 11:00:51;;;;;;;3.00;2.53;;;22.90;83.10;;;;;;5114284;28;20748;-70
2021/07/09 11:03:44;;;;;;;2.10;2.00;;;23.10;78.90;;;;;;5114328;28;20421;-71
2021/07/09 11:06:17;;;;;;;2.20;2.00;;;23.30;82.60;;;;;;5113917;28;20372;-69
2021/07/09 11:08:52;;;;;;;2.33;2.13;;;23.60;80.80;;;;;;5114270;28;20398;-71
2021/07/09 11:11:35;;;;;;;1.93;1.83;;;23.70;79.40;;;;;;5114256;28;20789;-69
2021/07/09 11:14:03;;;;;;;2.90;2.60;;;23.70;80.00;;;;;;5114023;28;20395;-70
2021/07/09 11:16:32;;;;;;;2.67;2.37;;;23.90;78.40;;;;;;5113787;28;20554;-70
2021/07/09 11:19:02;;;;;;;4.40;2.67;;;24.00;77.20;;;;;;5114262;28;20726;-68
2021/07/09 11:21:30;;;;;;;2.57;2.37;;;23.60;73.50;;;;;;5114214;28;20403;-69
2021/07/09 11:24:04;;;;;;;2.43;2.23;;;23.50;75.10;;;;;;5114035;28;20992;-69
2021/07/09 11:26:33;;;;;;;2.83;2.63;;;23.70;76.90;;;;;;5113789;28;21176;-71
2021/07/09 11:28:58;;;;;;;2.87;2.67;;;23.90;78.60;;;;;;5114074;28;20381;-69
2021/07/09 11:31:35;;;;;;;4.40;2.40;;;24.00;78.10;;;;;;5113851;28;20387;-69
2021/07/09 11:34:05;;;;;;;2.37;2.27;;;24.40;78.00;;;;;;5113627;28;20195;-68
2021/07/09 11:36:58;;;;;;;2.10;1.37;;;24.50;73.50;;;;;;5113586;28;20449;-71
2021/07/09 11:39:27;;;;;;;2.07;1.87;;;24.60;73.10;;;;;;5113940;28;20773;-71
2021/07/09 11:42:06;;;;;;;2.07;1.97;;;25.00;73.90;;;;;;5113685;28;20459;-69
2021/07/09 11:44:34;;;;;;;2.80;1.80;;;25.50;75.60;;;;;;5113677;28;20436;-68
2021/07/09 11:47:05;;;;;;;2.20;2.07;;;26.00;66.90;;;;;;5113489;28;20931;-72
2021/07/09 11:49:34;;;;;;;2.50;2.30;;;25.90;67.90;;;;;;5113757;28;20872;-71
2021/07/09 11:52:09;;;;;;;2.27;2.17;;;25.50;66.20;;;;;;5114056;28;20428;-71
2021/07/09 11:54:45;;;;;;;2.83;2.40;;;25.00;66.70;;;;;;5113493;28;20829;-69
2021/07/09 11:57:16;;;;;;;2.93;2.53;;;24.50;70.70;;;;;;5113321;28;20450;-68
2021/07/09 11:59:43;;;;;;;2.80;2.53;;;23.60;72.00;;;;;;5113779;28;20404;-68
2021/07/09 12:02:20;;;;;;;3.83;3.00;;;23.20;73.40;;;;;;5112404;28;20985;-72
2021/07/09 12:04:45;;;;;;;2.90;2.70;;;23.20;75.40;;;;;;5112272;28;20404;-71
2021/07/09 12:07:16;;;;;;;3.30;2.97;;;22.60;73.60;;;;;;5113371;28;20781;-70
2021/07/09 12:09:56;;;;;;;3.63;3.33;;;22.70;77.20;;;;;;5113600;28;20165;-69
2021/07/09 12:12:23;;;;;;;2.70;2.17;;;22.90;77.20;;;;;;5113599;28;20398;-69
2021/07/09 12:14:59;;;;;;;2.23;2.10;;;22.60;75.30;;;;;;5113350;28;20433;-68
2021/07/09 12:17:31;;;;;;;2.70;2.50;;;22.60;77.00;;;;;;5113332;28;20461;-69
2021/07/09 12:20:00;;;;;;;2.73;2.43;;;22.70;78.30;;;;;;5113557;28;20872;-69
2021/07/09 12:22:35;;;;;;;2.27;2.00;;;22.40;78.50;;;;;;5113536;28;20367;-68
2021/07/09 12:25:03;;;;;;;2.73;2.53;;;22.20;80.00;;;;;;5113223;28;20412;-68
2021/07/09 12:27:31;;;;;;;2.67;2.40;;;22.10;79.90;;;;;;5113232;28;20403;-69
2021/07/09 12:29:57;;;;;;;2.10;1.90;;;21.70;80.20;;;;;;5113326;28;20905;-69
2021/07/09 12:32:23;;;;;;;2.57;2.07;;;21.40;81.90;;;;;;5113334;28;20399;-69
2021/07/09 12:35:01;;;;;;;2.63;2.43;;;21.30;82.50;;;;;;5113243;28;20774;-67
2021/07/09 12:37:27;;;;;;;2.07;1.93;;;21.50;83.30;;;;;;5113118;28;20644;-69
2021/07/09 12:39:52;;;;;;;2.30;2.20;;;21.60;83.80;;;;;;5113173;28;20399;-68
2021/07/09 12:42:22;;;;;;;2.50;2.40;;;21.60;82.90;;;;;;5113130;28;20180;-69
2021/07/09 12:44:57;;;;;;;2.43;2.23;;;21.50;83.00;;;;;;5112938;28;20213;-68
2021/07/09 12:47:23;;;;;;;2.20;2.10;;;21.70;85.10;;;;;;5116611;28;20503;-71